Ana Sayfa
METAR-TAF:

METAR-TAF

Havaalanları :

Tri-County Airport

Ahoskie, Kuzey Carolina, Amerika Birleşik Devletleri

Enlem: 36-17-51N, Boylam: 077-10-15W, yükseklik: 21 m

Güncel hava durumu gözlemi

Rapor saat 14:15 UTC de 7 dakika önce yapıldı.
Rüzgar kuzeydan 14 kt ve 19 kt'a kadar ani rüzgarlar
Sıcaklık -1°C
Nem 50%
Basınç 1031 hPa
Görüş mesafesi: 16.1 km
Açık gökyüzü

METAR: KASJ 131415Z AUTO 36014G19KT 10SM CLR M01/M10 A3045 RMK AO2 T10111103

Saat: 09:22 (14:22 UTC)


TAF: eksik

4.000'den fazla havaalanı için hava durumu gözlemleri ve tahminleri (METAR ve TAF raporları).

Kullanılabilir istasyonlar harita üzerinde sarı ve kırmızı noktalarla gösterilir.

İstasyonun adını görmek için fareyi noktanın üzerinde gezdirin.

Sonrasında hava gözlem ve tahminlerini görmek için tıklayın.

Haritayı değiştirmek için: yaklaştırmak için siyah artı işaretli yeşil düğmeye ve uzaklaştırmak için de eksi işaretli düğmeye hızla tıklayın; bitişik haritalar için yeşil okları kullanın.


METAR-TAF: